Terminal Aerodrome Forecast
Issued by NWS Austin/San Antonio, TX

Home | Current Version | Previous Version | Text Only | Print | Product List | Glossary On
Versions: 1 2 3 4 5 6 7 8 9 10 11 12 13 14 15 16 17 18 19 20 21
000
FTUS44 KEWX 180600 AAA
TAFAUS
TAF AMD
KAUS 180611Z 1806/1912 13007KT 3SM -DZ BR BKN005 OVC010
      TEMPO 1806/1808 1SM BR OVC005
     FM180800 02005KT 1/2SM FG OVC002
     FM181500 01007KT 5SM BR OVC008
     FM181700 04007KT P6SM OVC012
     FM181900 06006KT P6SM BKN035
     FM190900 VRB03KT 3SM BR BKN250=

USA.gov is the U.S. government's official web portal to all federal, state and local government web resources and services.